createdAt,value
2023-01-22T00:00:55.410Z,7.55
2023-01-22T00:02:06.894Z,7.82
2023-01-22T00:03:18.404Z,7.78
2023-01-22T00:04:29.944Z,5.00
2023-01-22T00:05:41.402Z,5.97
2023-01-22T00:06:52.862Z,6.50
2023-01-22T00:08:04.445Z,8.38
2023-01-22T00:09:15.960Z,5.97
2023-01-22T00:10:27.432Z,3.20
2023-01-22T00:11:38.846Z,3.17
2023-01-22T00:12:50.325Z,3.15
2023-01-22T00:14:02.110Z,2.28
2023-01-22T00:15:13.618Z,2.25
2023-01-22T00:16:25.052Z,4.60
2023-01-22T00:17:37.849Z,4.25
2023-01-22T00:18:49.261Z,4.00
2023-01-22T00:20:00.765Z,4.32
2023-01-22T00:21:13.151Z,4.32
2023-01-22T00:22:24.692Z,3.67
2023-01-22T00:23:39.500Z,5.00
2023-01-22T00:24:52.999Z,12.38
2023-01-22T00:26:11.274Z,5.10
2023-01-22T00:27:22.730Z,5.68
2023-01-22T00:28:34.579Z,4.65
2023-01-22T00:29:46.139Z,4.30
2023-01-22T00:30:58.473Z,6.28
2023-01-22T00:32:10.081Z,5.57
2023-01-22T00:33:21.661Z,5.18
2023-01-22T00:34:33.086Z,5.32
2023-01-22T00:35:46.380Z,5.95
2023-01-22T00:36:58.026Z,6.60
2023-01-22T00:38:09.573Z,4.32
2023-01-22T00:39:20.990Z,4.32
2023-01-22T00:40:32.457Z,5.15
2023-01-22T00:41:43.955Z,5.55
2023-01-22T00:42:55.484Z,4.82
2023-01-22T00:44:09.194Z,5.38
2023-01-22T00:45:20.581Z,4.80
2023-01-22T00:46:34.677Z,3.15
2023-01-22T00:47:46.222Z,4.72
2023-01-22T00:48:57.727Z,6.20
2023-01-22T00:50:09.544Z,5.65
2023-01-22T00:51:21.044Z,3.78
2023-01-22T00:52:35.009Z,1.90
2023-01-22T00:53:49.097Z,3.38
2023-01-22T00:55:00.550Z,3.05
2023-01-22T00:56:13.175Z,1.52
2023-01-22T00:57:24.646Z,2.45
2023-01-22T00:58:36.157Z,1.60
2023-01-22T00:59:48.246Z,1.67
2023-01-22T01:01:01.967Z,2.13
2023-01-22T01:02:14.105Z,2.17
2023-01-22T01:03:30.362Z,2.45
2023-01-22T01:04:41.901Z,2.13
2023-01-22T01:05:54.470Z,2.20
2023-01-22T01:07:06.103Z,2.00
2023-01-22T01:08:17.592Z,2.55
2023-01-22T01:09:29.003Z,4.40
2023-01-22T01:10:40.411Z,5.03
2023-01-22T01:11:51.846Z,3.10
2023-01-22T01:13:10.489Z,4.20
2023-01-22T01:14:24.752Z,7.00
2023-01-22T01:15:36.232Z,3.20
2023-01-22T01:16:49.426Z,2.17
2023-01-22T01:18:00.839Z,1.73
2023-01-22T01:19:12.429Z,2.85
2023-01-22T01:20:23.839Z,2.45
2023-01-22T01:21:37.124Z,3.00
2023-01-22T01:22:48.528Z,2.78
2023-01-22T01:24:00.255Z,1.77
2023-01-22T01:25:14.069Z,2.30
2023-01-22T01:26:25.530Z,3.50
2023-01-22T01:27:36.948Z,4.88
2023-01-22T01:28:48.470Z,3.60
2023-01-22T01:29:59.909Z,3.63
2023-01-22T01:31:12.775Z,3.58
2023-01-22T01:32:24.504Z,3.72
2023-01-22T01:33:36.013Z,4.07
2023-01-22T01:34:49.568Z,4.00
2023-01-22T01:36:05.778Z,4.88
2023-01-22T01:37:17.416Z,5.10
2023-01-22T01:38:32.177Z,5.20
2023-01-22T01:39:43.638Z,4.80
2023-01-22T01:40:55.183Z,5.55
2023-01-22T01:42:06.693Z,4.80
2023-01-22T01:43:18.214Z,6.82
2023-01-22T01:44:32.788Z,7.03
2023-01-22T01:45:44.600Z,5.47
2023-01-22T01:47:00.332Z,3.67
2023-01-22T01:48:17.630Z,2.25
2023-01-22T01:49:33.801Z,1.55
2023-01-22T01:50:49.124Z,1.80
2023-01-22T01:52:02.713Z,1.67
2023-01-22T01:53:14.180Z,1.85
2023-01-22T01:54:26.031Z,2.75
2023-01-22T01:55:39.195Z,1.08
2023-01-22T01:56:56.099Z,1.00
2023-01-22T01:58:10.520Z,1.02
2023-01-22T01:59:22.501Z,1.27
2023-01-22T02:00:35.251Z,1.00
2023-01-22T02:01:49.509Z,0.93
2023-01-22T02:03:01.027Z,0.95
2023-01-22T02:04:12.578Z,0.65
2023-01-22T02:05:24.108Z,1.30
2023-01-22T02:06:38.338Z,1.08
2023-01-22T02:07:52.167Z,0.93
2023-01-22T02:09:03.927Z,0.75
2023-01-22T02:10:18.629Z,1.23
2023-01-22T02:11:30.747Z,0.75
2023-01-22T02:12:42.231Z,1.27
2023-01-22T02:13:58.069Z,1.17
2023-01-22T02:15:10.348Z,1.30
2023-01-22T02:16:21.839Z,0.98
2023-01-22T02:17:33.290Z,1.13
2023-01-22T02:18:44.755Z,1.10
2023-01-22T02:19:56.202Z,1.73
2023-01-22T02:21:26.267Z,1.27
2023-01-22T02:22:41.716Z,1.15
2023-01-22T02:23:53.148Z,1.08
2023-01-22T02:25:04.814Z,2.00
2023-01-22T02:26:17.893Z,0.73
2023-01-22T02:27:29.306Z,1.50
2023-01-22T02:28:40.711Z,1.00
2023-01-22T02:29:52.174Z,1.10
2023-01-22T02:31:03.667Z,1.70
2023-01-22T02:32:15.138Z,1.20
2023-01-22T02:33:26.559Z,2.03
2023-01-22T02:34:38.174Z,0.90
2023-01-22T02:35:49.639Z,1.20
2023-01-22T02:37:01.363Z,1.92
2023-01-22T02:38:14.231Z,0.90
2023-01-22T02:39:25.809Z,1.20
2023-01-22T02:40:49.172Z,1.10
2023-01-22T02:42:01.226Z,1.30
2023-01-22T02:43:12.647Z,1.38
2023-01-22T02:44:24.214Z,1.77
2023-01-22T02:45:35.752Z,1.67
2023-01-22T02:46:47.241Z,2.47
2023-01-22T02:47:58.712Z,0.95
2023-01-22T02:49:10.245Z,1.02
2023-01-22T02:50:21.668Z,1.48
2023-01-22T02:51:33.112Z,0.75
2023-01-22T02:52:44.607Z,2.22
2023-01-22T02:53:56.124Z,1.48
2023-01-22T02:55:08.009Z,1.02
2023-01-22T02:56:19.961Z,0.80
2023-01-22T02:57:34.313Z,1.50
2023-01-22T02:58:45.780Z,0.75
2023-01-22T02:59:57.691Z,1.73
2023-01-22T03:01:19.039Z,1.38
2023-01-22T03:02:30.724Z,1.25
2023-01-22T03:03:43.302Z,1.70
2023-01-22T03:05:05.900Z,1.83
2023-01-22T03:06:21.719Z,1.90
2023-01-22T03:07:42.463Z,4.85
2023-01-22T03:08:55.368Z,14.70
2023-01-22T03:10:06.953Z,20.80
2023-01-22T03:11:18.422Z,14.65
2023-01-22T03:12:49.878Z,7.30
2023-01-22T03:14:19.685Z,6.80
2023-01-22T03:15:50.226Z,6.50
2023-01-22T03:17:20.268Z,5.28
2023-01-22T03:18:50.561Z,5.32
2023-01-22T03:20:20.765Z,6.55
2023-01-22T03:21:32.277Z,5.28
2023-01-22T03:22:43.703Z,5.28
2023-01-22T03:23:55.560Z,6.32
2023-01-22T03:25:08.926Z,6.82
2023-01-22T03:26:21.791Z,6.25
2023-01-22T03:27:33.262Z,5.38
2023-01-22T03:28:45.993Z,5.20
2023-01-22T03:29:58.334Z,5.00
2023-01-22T03:31:10.035Z,3.70
2023-01-22T03:32:21.846Z,2.75
2023-01-22T03:33:33.881Z,4.47
2023-01-22T03:34:45.358Z,3.17
2023-01-22T03:36:14.815Z,2.45
2023-01-22T03:37:26.259Z,2.88
2023-01-22T03:38:37.797Z,2.95
2023-01-22T03:39:49.236Z,2.50
2023-01-22T03:41:01.395Z,2.70
2023-01-22T03:42:12.819Z,3.45
2023-01-22T03:43:24.288Z,2.15
2023-01-22T03:44:35.737Z,2.47
2023-01-22T03:45:47.141Z,2.58
2023-01-22T03:46:58.606Z,3.75
2023-01-22T03:48:10.114Z,2.42
2023-01-22T03:49:23.865Z,2.40
2023-01-22T03:50:37.892Z,1.58
2023-01-22T03:51:49.550Z,1.65
2023-01-22T03:53:01.024Z,2.53
2023-01-22T03:54:13.377Z,2.38
2023-01-22T03:55:27.595Z,1.48
2023-01-22T03:56:39.078Z,1.85
2023-01-22T03:57:53.052Z,2.40
2023-01-22T03:59:04.676Z,2.30
2023-01-22T04:00:16.727Z,1.95
2023-01-22T04:01:28.667Z,1.05
2023-01-22T04:02:40.245Z,1.27
2023-01-22T04:03:52.118Z,1.27
2023-01-22T04:05:03.572Z,1.15
2023-01-22T04:06:15.146Z,1.42
2023-01-22T04:07:26.632Z,1.50
2023-01-22T04:08:39.115Z,1.08
2023-01-22T04:09:50.606Z,1.63
2023-01-22T04:11:02.520Z,1.17
2023-01-22T04:12:13.959Z,0.80
2023-01-22T04:13:26.190Z,1.60
2023-01-22T04:14:37.628Z,1.05
2023-01-22T04:15:51.768Z,1.40
2023-01-22T04:17:03.292Z,1.02
2023-01-22T04:18:16.261Z,1.10
2023-01-22T04:19:27.735Z,1.05
2023-01-22T04:20:39.841Z,1.52
2023-01-22T04:21:51.299Z,1.42
2023-01-22T04:23:02.767Z,1.10
2023-01-22T04:24:14.197Z,0.80
2023-01-22T04:25:25.784Z,1.48
2023-01-22T04:26:37.222Z,1.70
2023-01-22T04:27:48.646Z,1.35
2023-01-22T04:29:00.121Z,1.42
2023-01-22T04:30:11.744Z,1.52
2023-01-22T04:31:25.691Z,1.08
2023-01-22T04:32:37.282Z,1.50
2023-01-22T04:33:48.740Z,1.08
2023-01-22T04:35:00.198Z,0.70
2023-01-22T04:36:11.720Z,1.48
2023-01-22T04:37:23.171Z,1.25
2023-01-22T04:38:34.723Z,1.00
2023-01-22T04:39:46.185Z,0.88
2023-01-22T04:41:00.025Z,1.42
2023-01-22T04:42:11.792Z,0.93
2023-01-22T04:43:23.292Z,0.75
2023-01-22T04:44:34.774Z,0.98
2023-01-22T04:45:46.256Z,1.63
2023-01-22T04:46:57.757Z,0.80
2023-01-22T04:48:09.422Z,1.10
2023-01-22T04:49:21.002Z,0.90
2023-01-22T04:50:33.411Z,0.93
2023-01-22T04:51:44.824Z,1.17
2023-01-22T04:52:56.712Z,1.55
2023-01-22T04:54:08.197Z,1.10
2023-01-22T04:55:20.066Z,1.30
2023-01-22T04:56:31.533Z,1.70
2023-01-22T04:57:42.982Z,0.80
2023-01-22T04:58:55.559Z,1.00
2023-01-22T05:00:07.483Z,1.40
2023-01-22T05:01:18.945Z,1.98
2023-01-22T05:02:30.417Z,1.00
2023-01-22T05:03:41.883Z,1.02
2023-01-22T05:04:53.390Z,0.93
2023-01-22T05:06:05.052Z,0.93
2023-01-22T05:07:16.498Z,0.70
2023-01-22T05:08:27.955Z,0.50
2023-01-22T05:09:39.394Z,1.08
2023-01-22T05:10:52.014Z,1.60
2023-01-22T05:12:03.528Z,0.60
2023-01-22T05:13:14.934Z,0.70
2023-01-22T05:14:26.446Z,1.02
2023-01-22T05:15:37.951Z,1.30
2023-01-22T05:16:49.509Z,1.73
2023-01-22T05:18:00.968Z,1.73
2023-01-22T05:19:13.542Z,2.97
2023-01-22T05:20:25.660Z,2.92
2023-01-22T05:21:39.163Z,3.70
2023-01-22T05:22:50.558Z,4.85
2023-01-22T05:24:02.022Z,3.53
2023-01-22T05:25:13.507Z,3.70
2023-01-22T05:26:24.993Z,3.38
2023-01-22T05:27:36.425Z,2.80
2023-01-22T05:28:47.892Z,2.90
2023-01-22T05:29:59.411Z,20.25
2023-01-22T05:31:11.330Z,5.50
2023-01-22T05:32:23.926Z,3.88
2023-01-22T05:33:35.535Z,4.72
2023-01-22T05:34:47.043Z,11.82
2023-01-22T05:35:59.092Z,23.70
2023-01-22T05:37:10.624Z,22.10
2023-01-22T05:38:22.044Z,22.17
2023-01-22T05:39:33.484Z,24.48
2023-01-22T05:40:45.671Z,27.23
2023-01-22T05:41:57.184Z,11.07
2023-01-22T05:43:08.651Z,12.57
2023-01-22T05:44:20.093Z,18.17
2023-01-22T05:45:31.530Z,14.20
2023-01-22T05:46:42.972Z,14.82
2023-01-22T05:47:54.504Z,11.43
2023-01-22T05:49:06.279Z,8.90
2023-01-22T05:50:21.537Z,10.00
2023-01-22T05:51:33.262Z,8.25
2023-01-22T05:52:44.713Z,8.35
2023-01-22T05:53:56.193Z,8.20
2023-01-22T05:55:07.993Z,4.43
2023-01-22T05:56:19.461Z,3.95
2023-01-22T05:57:33.086Z,4.53
2023-01-22T05:58:44.669Z,3.72
2023-01-22T05:59:56.132Z,4.03
2023-01-22T06:01:07.705Z,7.00
2023-01-22T06:02:19.262Z,21.42
2023-01-22T06:03:30.760Z,20.05
2023-01-22T06:04:42.263Z,14.73
2023-01-22T06:06:04.158Z,11.82
2023-01-22T06:07:15.628Z,13.38
2023-01-22T06:08:27.411Z,16.42
2023-01-22T06:09:39.035Z,16.70
2023-01-22T06:10:50.536Z,17.33
2023-01-22T06:12:01.995Z,16.75
2023-01-22T06:13:13.459Z,16.23
2023-01-22T06:14:24.913Z,17.75
2023-01-22T06:15:36.400Z,17.98
2023-01-22T06:16:47.920Z,17.98
2023-01-22T06:18:02.486Z,15.25
2023-01-22T06:19:13.939Z,13.38
2023-01-22T06:20:25.418Z,11.35
2023-01-22T06:21:39.358Z,11.73
2023-01-22T06:22:51.254Z,13.65
2023-01-22T06:24:02.773Z,12.52
2023-01-22T06:25:14.256Z,11.88
2023-01-22T06:26:25.790Z,13.75
2023-01-22T06:27:37.230Z,19.75
2023-01-22T06:28:48.653Z,17.35
2023-01-22T06:30:00.161Z,15.80
2023-01-22T06:31:11.717Z,14.73
2023-01-22T06:32:23.261Z,13.52
2023-01-22T06:33:35.326Z,13.70
2023-01-22T06:34:46.823Z,13.13
2023-01-22T06:35:58.300Z,10.98
2023-01-22T06:37:09.752Z,12.30
2023-01-22T06:38:21.614Z,14.20
2023-01-22T06:39:33.081Z,13.77
2023-01-22T06:40:50.406Z,12.30
2023-01-22T06:42:03.916Z,15.68
2023-01-22T06:43:15.393Z,19.02
2023-01-22T06:44:29.223Z,16.80
2023-01-22T06:45:40.687Z,14.32
2023-01-22T06:46:55.115Z,13.45
2023-01-22T06:48:06.694Z,12.80
2023-01-22T06:49:18.121Z,13.98
2023-01-22T06:50:29.575Z,14.38
2023-01-22T06:51:41.589Z,14.63
2023-01-22T06:52:53.063Z,13.82
2023-01-22T06:54:04.564Z,13.00
2023-01-22T06:55:16.145Z,13.38
2023-01-22T06:56:28.135Z,12.70
2023-01-22T06:57:42.154Z,12.18
2023-01-22T06:58:55.955Z,11.80
2023-01-22T07:00:07.964Z,8.40
2023-01-22T07:01:22.718Z,9.40
2023-01-22T07:02:34.262Z,11.23
2023-01-22T07:03:48.473Z,11.05
2023-01-22T07:04:59.991Z,12.02
2023-01-22T07:06:13.608Z,12.43
2023-01-22T07:07:25.106Z,16.77
2023-01-22T07:08:37.102Z,17.08
2023-01-22T07:09:56.189Z,15.57
2023-01-22T07:11:08.017Z,14.02
2023-01-22T07:12:19.578Z,11.02
2023-01-22T07:13:34.731Z,10.35
2023-01-22T07:14:46.197Z,13.10
2023-01-22T07:16:00.794Z,9.77
2023-01-22T07:17:12.421Z,9.85
2023-01-22T07:18:24.495Z,7.97
2023-01-22T07:19:35.971Z,7.35
2023-01-22T07:20:47.979Z,6.78
2023-01-22T07:21:59.465Z,6.25
2023-01-22T07:23:10.969Z,7.63
2023-01-22T07:24:23.853Z,3.15
2023-01-22T07:25:35.326Z,4.47
2023-01-22T07:26:48.614Z,4.28
2023-01-22T07:28:00.720Z,4.15
2023-01-22T07:29:12.156Z,4.25
2023-01-22T07:30:23.626Z,4.55
2023-01-22T07:31:35.184Z,4.70
2023-01-22T07:32:46.690Z,2.72
2023-01-22T07:33:58.395Z,4.68
2023-01-22T07:35:10.219Z,10.85
2023-01-22T07:36:21.936Z,6.85
2023-01-22T07:37:33.467Z,4.82
2023-01-22T07:38:50.138Z,8.30
2023-01-22T07:40:01.769Z,5.53
2023-01-22T07:41:25.066Z,3.20
2023-01-22T07:42:39.691Z,4.47
2023-01-22T07:43:52.631Z,6.20
2023-01-22T07:45:04.199Z,5.18
2023-01-22T07:46:16.144Z,7.78
2023-01-22T07:47:27.860Z,3.72
2023-01-22T07:48:39.670Z,3.67
2023-01-22T07:49:53.819Z,2.67
2023-01-22T07:51:06.401Z,4.13
2023-01-22T07:52:18.030Z,3.13
2023-01-22T07:53:29.976Z,3.75
2023-01-22T07:54:41.593Z,3.72
2023-01-22T07:55:53.424Z,5.15
2023-01-22T07:57:05.586Z,4.60
2023-01-22T07:58:17.226Z,4.63
2023-01-22T07:59:28.746Z,3.88
2023-01-22T08:00:40.323Z,3.35
2023-01-22T08:01:53.973Z,4.28
2023-01-22T08:03:10.413Z,4.50
2023-01-22T08:04:21.959Z,4.93
2023-01-22T08:05:34.637Z,5.63
2023-01-22T08:06:46.160Z,4.95
2023-01-22T08:08:00.363Z,15.02
2023-01-22T08:09:11.813Z,4.63
2023-01-22T08:10:25.548Z,5.93
2023-01-22T08:11:37.025Z,6.05
2023-01-22T08:12:48.588Z,6.03
2023-01-22T08:14:00.109Z,6.30
2023-01-22T08:15:14.624Z,6.38
2023-01-22T08:16:26.534Z,5.32
2023-01-22T08:17:38.658Z,6.63
2023-01-22T08:18:50.156Z,5.80
2023-01-22T08:20:01.693Z,7.25
2023-01-22T08:21:13.296Z,7.30
2023-01-22T08:22:24.865Z,7.85
2023-01-22T08:23:36.331Z,7.20
2023-01-22T08:24:47.805Z,11.35
2023-01-22T08:26:00.464Z,12.20
2023-01-22T08:27:11.937Z,14.38
2023-01-22T08:28:23.368Z,27.77
2023-01-22T08:29:37.427Z,39.17
2023-01-22T08:30:50.019Z,9.40
2023-01-22T08:32:01.752Z,7.55
2023-01-22T08:33:15.673Z,52.55
2023-01-22T08:34:29.816Z,28.02
2023-01-22T08:35:41.505Z,17.80
2023-01-22T08:36:52.968Z,16.23
2023-01-22T08:38:08.931Z,13.20
2023-01-22T08:39:20.392Z,11.82
2023-01-22T08:40:36.564Z,14.35
2023-01-22T08:41:49.319Z,9.52
2023-01-22T08:43:01.007Z,15.13
2023-01-22T08:44:13.689Z,11.63
2023-01-22T08:45:26.335Z,11.63
2023-01-22T08:46:40.248Z,10.93
2023-01-22T08:47:55.755Z,9.70
2023-01-22T08:49:07.553Z,9.45
2023-01-22T08:50:19.829Z,8.90
2023-01-22T08:51:33.112Z,9.10
2023-01-22T08:52:44.705Z,12.73
2023-01-22T08:53:58.469Z,6.93
2023-01-22T08:55:10.184Z,8.80
2023-01-22T08:56:24.454Z,8.75
2023-01-22T08:57:36.519Z,8.98
2023-01-22T08:58:51.484Z,8.07
2023-01-22T09:00:03.916Z,6.50
2023-01-22T09:01:16.999Z,6.85
2023-01-22T09:02:28.515Z,7.90
2023-01-22T09:03:40.029Z,7.35
2023-01-22T09:04:51.499Z,4.47
2023-01-22T09:06:06.180Z,2.67
2023-01-22T09:07:19.008Z,4.10
2023-01-22T09:08:34.531Z,3.58
2023-01-22T09:09:48.420Z,4.30
2023-01-22T09:11:06.554Z,4.38
2023-01-22T09:12:18.134Z,2.95
2023-01-22T09:13:29.812Z,2.88
2023-01-22T09:14:41.875Z,2.72
2023-01-22T09:16:01.638Z,2.28
2023-01-22T09:17:16.534Z,2.60
2023-01-22T09:18:28.083Z,3.55
2023-01-22T09:19:39.834Z,3.20
2023-01-22T09:20:53.406Z,3.40
2023-01-22T09:22:08.215Z,3.25
2023-01-22T09:23:20.312Z,3.00
2023-01-22T09:24:36.380Z,2.40
2023-01-22T09:25:51.823Z,3.70
2023-01-22T09:27:03.764Z,1.88
2023-01-22T09:28:15.544Z,2.20
2023-01-22T09:29:27.286Z,2.15
2023-01-22T09:30:45.274Z,2.10
2023-01-22T09:31:57.936Z,1.92
2023-01-22T09:33:09.490Z,1.52
2023-01-22T09:34:20.952Z,4.13
2023-01-22T09:35:37.414Z,2.97
2023-01-22T09:36:51.263Z,2.58
2023-01-22T09:38:05.604Z,2.10
2023-01-22T09:39:22.292Z,1.17
2023-01-22T09:40:42.194Z,1.67
2023-01-22T09:41:55.504Z,1.33
2023-01-22T09:43:23.905Z,1.30
2023-01-22T09:44:44.554Z,1.65
2023-01-22T09:45:59.289Z,2.45
2023-01-22T09:47:12.705Z,1.38
2023-01-22T09:48:28.114Z,2.08
2023-01-22T09:49:42.549Z,1.20
2023-01-22T09:50:56.122Z,1.45
2023-01-22T09:52:09.849Z,3.40
2023-01-22T09:53:21.537Z,1.48
2023-01-22T09:54:33.084Z,1.73
2023-01-22T09:55:51.240Z,1.70
2023-01-22T09:57:06.986Z,2.97
2023-01-22T09:58:25.611Z,1.65
2023-01-22T09:59:47.971Z,1.85
2023-01-22T10:01:02.540Z,1.88
2023-01-22T10:02:18.807Z,1.88
2023-01-22T10:03:38.374Z,1.73
2023-01-22T10:04:52.208Z,1.73
2023-01-22T10:06:06.521Z,1.38
2023-01-22T10:07:24.379Z,0.90
2023-01-22T10:08:43.917Z,1.25
2023-01-22T10:09:57.165Z,2.13
2023-01-22T10:11:09.902Z,2.78
2023-01-22T10:12:21.454Z,1.67
2023-01-22T10:13:34.121Z,2.22
2023-01-22T10:14:46.997Z,2.45
2023-01-22T10:15:58.490Z,9.00
2023-01-22T10:17:17.792Z,1.60
2023-01-22T10:18:32.207Z,2.47
2023-01-22T10:19:48.162Z,2.38
2023-01-22T10:21:04.190Z,2.20
2023-01-22T10:22:23.773Z,0.70
2023-01-22T10:23:35.308Z,1.52
2023-01-22T10:24:48.510Z,2.50
2023-01-22T10:26:04.356Z,2.53
2023-01-22T10:27:19.396Z,2.40
2023-01-22T10:28:31.267Z,2.63
2023-01-22T10:29:47.990Z,1.60
2023-01-22T10:30:59.549Z,4.72
2023-01-22T10:32:24.643Z,3.30
2023-01-22T10:33:39.947Z,2.35
2023-01-22T10:35:06.512Z,3.28
2023-01-22T10:36:18.139Z,2.08
2023-01-22T10:37:30.042Z,2.63
2023-01-22T10:38:43.976Z,1.92
2023-01-22T10:39:59.846Z,2.55
2023-01-22T10:41:17.529Z,1.30
2023-01-22T10:42:34.020Z,2.47
2023-01-22T10:43:45.474Z,1.92
2023-01-22T10:44:59.255Z,1.60
2023-01-22T10:46:23.335Z,2.83
2023-01-22T10:47:37.731Z,2.00
2023-01-22T10:49:02.275Z,1.75
2023-01-22T10:50:15.032Z,3.22
2023-01-22T10:51:32.803Z,2.15
2023-01-22T10:53:10.841Z,2.92
2023-01-22T10:54:40.137Z,4.57
2023-01-22T10:55:55.537Z,2.83
2023-01-22T10:57:16.234Z,1.77
2023-01-22T10:58:36.044Z,1.90
2023-01-22T10:59:55.024Z,2.95
2023-01-22T11:01:20.108Z,5.53
2023-01-22T11:02:36.248Z,4.30
2023-01-22T11:03:51.332Z,5.35
2023-01-22T11:05:21.631Z,2.95
2023-01-22T11:06:38.815Z,2.45
2023-01-22T11:07:58.953Z,2.47
2023-01-22T11:09:16.653Z,1.70
2023-01-22T11:10:50.686Z,1.63
2023-01-22T11:12:26.183Z,6.25
2023-01-22T11:13:43.461Z,3.08
2023-01-22T11:15:04.943Z,2.88
2023-01-22T11:16:23.755Z,1.92
2023-01-22T11:17:41.648Z,3.97
2023-01-22T11:18:57.786Z,3.92
2023-01-22T11:20:24.741Z,2.03
2023-01-22T11:21:38.229Z,1.92
2023-01-22T11:22:57.856Z,1.67
2023-01-22T11:24:19.244Z,2.08
2023-01-22T11:25:36.550Z,1.70
2023-01-22T11:26:50.797Z,2.90
2023-01-22T11:28:18.581Z,0.85
2023-01-22T11:29:54.587Z,1.63
2023-01-22T11:31:29.937Z,0.85
2023-01-22T11:32:53.857Z,1.92
2023-01-22T11:34:05.284Z,2.05
2023-01-22T11:35:41.547Z,2.08
2023-01-22T11:36:52.958Z,2.60
2023-01-22T11:38:04.479Z,3.58
2023-01-22T11:39:29.325Z,2.67
2023-01-22T11:40:41.203Z,1.90
2023-01-22T11:41:52.654Z,1.70
2023-01-22T11:43:08.854Z,3.00
2023-01-22T11:44:20.560Z,2.55
2023-01-22T11:45:40.254Z,1.70
2023-01-22T11:46:57.775Z,1.70
2023-01-22T11:48:30.516Z,1.13
2023-01-22T11:49:56.209Z,1.67
2023-01-22T11:51:15.224Z,1.05
2023-01-22T11:52:41.178Z,0.65
2023-01-22T11:53:58.974Z,0.70
2023-01-22T11:55:22.752Z,1.95
2023-01-22T11:56:40.310Z,0.90
2023-01-22T11:57:57.946Z,0.98
2023-01-22T11:59:12.569Z,1.85
2023-01-22T12:00:24.010Z,2.65
2023-01-22T12:01:38.627Z,1.08
2023-01-22T12:03:03.423Z,0.65
2023-01-22T12:04:20.799Z,1.00
2023-01-22T12:05:41.310Z,0.50
2023-01-22T12:07:11.910Z,0.77
2023-01-22T12:08:26.153Z,1.10
2023-01-22T12:09:46.750Z,2.00
2023-01-22T12:11:01.252Z,2.08
2023-01-22T12:12:30.688Z,1.55
2023-01-22T12:13:42.162Z,1.42
2023-01-22T12:15:14.954Z,2.83
2023-01-22T12:16:37.622Z,3.42
2023-01-22T12:18:07.578Z,2.65
2023-01-22T12:19:37.629Z,2.60
2023-01-22T12:21:14.888Z,3.17
2023-01-22T12:22:39.639Z,1.20
2023-01-22T12:23:55.163Z,1.13
2023-01-22T12:25:08.885Z,0.75
2023-01-22T12:26:26.210Z,1.25
2023-01-22T12:27:59.967Z,1.10
2023-01-22T12:29:16.670Z,1.13
2023-01-22T12:30:28.091Z,0.95
2023-01-22T12:31:50.473Z,0.77
2023-01-22T12:33:08.858Z,0.88
2023-01-22T12:34:27.874Z,1.20
2023-01-22T12:35:39.967Z,0.82
2023-01-22T12:36:55.895Z,1.00
2023-01-22T12:38:22.895Z,0.85
2023-01-22T12:39:57.920Z,1.15
2023-01-22T12:41:25.347Z,1.15
2023-01-22T12:42:44.246Z,1.40
2023-01-22T12:43:57.241Z,1.65
2023-01-22T12:45:22.419Z,1.00
2023-01-22T12:46:36.874Z,0.60
2023-01-22T12:48:00.713Z,1.55
2023-01-22T12:49:18.198Z,1.38
2023-01-22T12:50:35.396Z,1.67
2023-01-22T12:51:50.618Z,1.67
2023-01-22T12:53:03.793Z,1.35
2023-01-22T12:54:21.307Z,1.50
2023-01-22T12:55:35.107Z,1.52
2023-01-22T12:56:47.273Z,1.73
2023-01-22T12:57:58.840Z,1.10
2023-01-22T12:59:28.846Z,2.65
2023-01-22T13:00:40.532Z,2.00
2023-01-22T13:01:58.111Z,1.65
2023-01-22T13:03:31.697Z,1.03
2023-01-22T13:04:43.644Z,1.73
2023-01-22T13:05:55.997Z,1.65
2023-01-22T13:07:22.471Z,3.25
2023-01-22T13:08:36.845Z,2.35
2023-01-22T13:09:49.105Z,1.58
2023-01-22T13:11:01.821Z,1.60
2023-01-22T13:12:26.842Z,1.20
2023-01-22T13:13:41.212Z,1.20
2023-01-22T13:14:54.070Z,1.90
2023-01-22T13:16:10.346Z,1.70
2023-01-22T13:17:27.517Z,3.25
2023-01-22T13:18:44.168Z,3.88
2023-01-22T13:19:56.636Z,4.13
2023-01-22T13:21:09.216Z,8.00
2023-01-22T13:22:22.570Z,7.68
2023-01-22T13:23:35.696Z,6.75
2023-01-22T13:24:57.407Z,3.78
2023-01-22T13:26:15.855Z,4.43
2023-01-22T13:27:28.922Z,2.97
2023-01-22T13:28:44.623Z,2.50
2023-01-22T13:30:12.743Z,1.75
2023-01-22T13:31:24.311Z,2.47
2023-01-22T13:32:38.323Z,3.22
2023-01-22T13:33:54.352Z,3.97
2023-01-22T13:35:06.405Z,6.72
2023-01-22T13:36:17.870Z,6.20
2023-01-22T13:37:30.956Z,5.90
2023-01-22T13:38:42.431Z,4.75
2023-01-22T13:39:53.825Z,3.58
2023-01-22T13:41:09.651Z,2.90
2023-01-22T13:42:21.379Z,5.47
2023-01-22T13:43:33.894Z,5.28
2023-01-22T13:44:48.947Z,4.75
2023-01-22T13:46:01.067Z,4.43
2023-01-22T13:47:38.723Z,4.13
2023-01-22T13:48:59.904Z,3.95
2023-01-22T13:50:21.451Z,3.17
2023-01-22T13:51:34.021Z,4.80
2023-01-22T13:52:50.355Z,7.65
2023-01-22T13:54:16.265Z,10.65
2023-01-22T13:55:28.128Z,6.97
2023-01-22T13:56:40.566Z,10.02
2023-01-22T13:57:53.361Z,5.47
2023-01-22T13:59:06.237Z,8.20
2023-01-22T14:00:21.931Z,15.02
2023-01-22T14:01:34.575Z,11.35
2023-01-22T14:02:46.218Z,8.85
2023-01-22T14:03:59.479Z,9.63
2023-01-22T14:05:18.820Z,34.97
2023-01-22T14:06:31.704Z,20.15
2023-01-22T14:07:45.532Z,9.88
2023-01-22T14:08:57.518Z,9.75
2023-01-22T14:10:14.778Z,11.68
2023-01-22T14:11:37.111Z,7.35
2023-01-22T14:13:04.082Z,11.43
2023-01-22T14:14:17.244Z,11.20
2023-01-22T14:15:28.813Z,12.63
2023-01-22T14:16:41.007Z,10.70
2023-01-22T14:17:52.600Z,10.77
2023-01-22T14:19:04.106Z,10.02
2023-01-22T14:20:16.589Z,9.68
2023-01-22T14:21:30.312Z,8.73
2023-01-22T14:22:42.249Z,8.02
2023-01-22T14:23:56.400Z,5.47
2023-01-22T14:25:09.962Z,6.40
2023-01-22T14:26:24.440Z,8.60
2023-01-22T14:27:43.919Z,7.78
2023-01-22T14:28:55.507Z,6.80
2023-01-22T14:30:07.487Z,5.63
2023-01-22T14:31:19.048Z,5.60
2023-01-22T14:32:31.755Z,3.53
2023-01-22T14:33:43.347Z,2.80
2023-01-22T14:34:54.823Z,2.28
2023-01-22T14:36:06.561Z,2.70
2023-01-22T14:37:18.399Z,2.10
2023-01-22T14:38:30.003Z,3.03
2023-01-22T14:39:41.516Z,3.13
2023-01-22T14:40:53.263Z,5.43
2023-01-22T14:42:09.413Z,3.17
2023-01-22T14:43:21.071Z,3.92
2023-01-22T14:44:32.741Z,1.50
2023-01-22T14:45:45.173Z,1.05
2023-01-22T14:46:56.756Z,0.82
2023-01-22T14:48:11.727Z,1.08
2023-01-22T14:49:24.416Z,1.52
2023-01-22T14:50:36.418Z,2.95
2023-01-22T14:51:48.690Z,2.40
2023-01-22T14:53:02.372Z,2.33
2023-01-22T14:54:14.080Z,1.45
2023-01-22T14:55:25.787Z,1.60
2023-01-22T14:56:37.282Z,0.90
2023-01-22T14:57:48.751Z,2.38
2023-01-22T14:59:02.245Z,4.55
2023-01-22T15:00:14.773Z,8.55
2023-01-22T15:01:26.290Z,9.57
2023-01-22T15:02:39.972Z,9.05
2023-01-22T15:03:55.266Z,17.70
2023-01-22T15:05:07.045Z,18.08
2023-01-22T15:06:18.878Z,14.48
2023-01-22T15:07:33.513Z,12.98
2023-01-22T15:08:44.984Z,11.20
2023-01-22T15:09:56.410Z,8.85
2023-01-22T15:11:08.025Z,19.70
2023-01-22T15:12:19.583Z,11.63
2023-01-22T15:13:33.988Z,9.90
2023-01-22T15:14:45.718Z,10.43
2023-01-22T15:15:57.470Z,13.90
2023-01-22T15:17:09.127Z,12.52
2023-01-22T15:18:23.436Z,8.65
2023-01-22T15:19:41.284Z,8.80
2023-01-22T15:20:56.586Z,8.82
2023-01-22T15:22:08.250Z,8.50
2023-01-22T15:23:19.816Z,7.30
2023-01-22T15:24:31.443Z,6.10
2023-01-22T15:25:43.254Z,4.88
2023-01-22T15:26:54.824Z,5.32
2023-01-22T15:28:06.409Z,5.22
2023-01-22T15:29:17.855Z,7.00
2023-01-22T15:30:29.514Z,5.63
2023-01-22T15:31:41.328Z,6.00
2023-01-22T15:32:52.954Z,5.97
2023-01-22T15:34:07.562Z,5.72
2023-01-22T15:35:21.578Z,5.78
2023-01-22T15:36:34.034Z,5.93
2023-01-22T15:37:50.367Z,7.45
2023-01-22T15:39:02.512Z,7.55
2023-01-22T15:40:14.475Z,5.30
2023-01-22T15:41:27.728Z,5.70
2023-01-22T15:42:39.333Z,3.63
2023-01-22T15:43:51.504Z,3.75
2023-01-22T15:45:04.173Z,3.20
2023-01-22T15:46:15.952Z,2.50
2023-01-22T15:47:28.252Z,2.60
2023-01-22T15:48:39.915Z,3.45
2023-01-22T15:49:51.923Z,10.35
2023-01-22T15:51:07.584Z,7.00
2023-01-22T15:52:19.148Z,5.78
2023-01-22T15:53:30.728Z,7.95
2023-01-22T15:54:42.211Z,8.38
2023-01-22T15:55:53.659Z,5.53
2023-01-22T15:57:05.595Z,5.15
2023-01-22T15:58:19.921Z,4.15
2023-01-22T15:59:32.241Z,6.82
2023-01-22T16:00:44.086Z,10.05
2023-01-22T16:01:55.718Z,8.80
2023-01-22T16:03:10.898Z,8.25
2023-01-22T16:04:23.055Z,8.80
2023-01-22T16:05:34.705Z,7.05
2023-01-22T16:06:48.838Z,6.47
2023-01-22T16:08:03.383Z,6.45
2023-01-22T16:09:15.119Z,7.65
2023-01-22T16:10:27.271Z,26.05
2023-01-22T16:11:39.372Z,22.10
2023-01-22T16:12:54.033Z,17.88
2023-01-22T16:14:06.644Z,19.05
2023-01-22T16:15:18.348Z,17.77
2023-01-22T16:16:32.278Z,14.55
2023-01-22T16:17:44.868Z,13.93
2023-01-22T16:18:58.739Z,8.77
2023-01-22T16:20:11.896Z,8.95
2023-01-22T16:21:23.669Z,9.30
2023-01-22T16:22:35.730Z,8.82